Hovedside
METAR-TAF:

METAR-TAF

Lufthavner :

Uppsala, Sverige

breddegrad: 59-53N, lengdegrad: 017-36E, høyde over havet: 21 m

Gjeldene værobservasjon

Denne rapporten ble laget for 28 minutter siden, klokken 18:20 UTC
Flau vind
Temperatur -3°C
Luftfuktighet 100%
Trykk 1038 hPa
Sikt 10 km eller mer

METAR: ESCM 191820Z AUTO 00000KT 9999 NCD M03/M03 Q1038

Tid: 19:48 (18:48 UTC)

Varsel

Denne rapporten ble laget for 7 timer og 18 minutter siden, klokken 11:30 UTC
Varsel gyldig fra 19. klokken 12 UTC til 19. klokken 15 UTC
Vind 5 kt fra Nordøst
Sikt 10 km eller mer
Brutte skyer i en høyde av 2000 ft

TAF: ESCM 191130Z 1912/1915 04005KT 9999 BKN020 RMK MIL

Værobservasjoner og værvarsel for over 4000 flyplasser (METAR- og TAF-rapporter).

Tilgjengelige stasjoner er representert av de røde og gule prikkene på kartet.

Hold musepekeren over prikken for å se navnet på stasjonen.

Klikk så for å se værobservasjoner og -varsler.

For å forandre kartet kan du klikke på den grønne knappen med svart kryss for å zoome inn, på den grønne knappen med strek for å zoome ut, eller på de grønne pilene for å se tilstøtende kart.


METAR-TAF: